Time,TemperatureF,DewpointF,PressureIn,WindDirection,WindDirectionDegrees,WindSpeedMPH,WindSpeedGustMPH,Humidity,HourlyPrecipIn,Conditions,Clouds,dailyrainin,SolarRadiationWatts/m^2,SoftwareType,DateUTC
2013-09-05 01:00:00,62.0,56.0,-100.00,West,270,2.0,-999.0,81,-99.99,,,-99.99,0.000000,,2013-09-05 05:00:00,
2013-09-05 01:43:00,62.0,56.0,-100.00,West,270,2.0,-999.0,81,-99.99,,,-99.99,0.000000,,2013-09-05 05:43:00,
2013-09-05 01:52:00,62.0,56.0,-100.00,West,270,2.0,-999.0,81,-99.99,,,-99.99,0.000000,,2013-09-05 05:52:00,
2013-09-05 02:00:00,61.0,57.0,-100.00,WNW,292,1.0,-999.0,85,-99.99,,,-99.99,0.000000,,2013-09-05 06:00:00,
2013-09-05 02:42:00,61.0,57.0,-100.00,WNW,292,1.0,-999.0,85,-99.99,,,-99.99,0.000000,,2013-09-05 06:42:00,
2013-09-05 02:52:00,61.0,57.0,-100.00,WNW,292,1.0,-999.0,85,-99.99,,,-99.99,0.000000,,2013-09-05 06:52:00,
2013-09-05 04:00:00,59.0,56.0,-100.00,WSW,247,1.0,-999.0,90,-99.99,,,-99.99,0.000000,,2013-09-05 08:00:00,
2013-09-05 04:42:00,59.0,56.0,-100.00,WSW,247,1.0,-999.0,90,-99.99,,,-99.99,0.000000,,2013-09-05 08:42:00,
2013-09-05 04:52:00,59.0,56.0,-100.00,WSW,247,1.0,-999.0,90,-99.99,,,-99.99,0.000000,,2013-09-05 08:52:00,
2013-09-05 05:00:00,60.0,58.0,-100.00,West,270,2.0,-999.0,91,-99.99,,,-99.99,0.000000,,2013-09-05 09:00:00,
2013-09-05 05:43:00,60.0,58.0,-100.00,West,270,2.0,-999.0,91,-99.99,,,-99.99,0.000000,,2013-09-05 09:43:00,
2013-09-05 05:54:00,60.0,58.0,-100.00,West,270,2.0,-999.0,91,-99.99,,,-99.99,0.000000,,2013-09-05 09:54:00,
2013-09-05 06:00:00,61.0,58.0,-100.00,WNW,292,4.0,-999.0,90,-99.99,,,-99.99,0.000000,,2013-09-05 10:00:00,
2013-09-05 06:43:00,61.0,58.0,-100.00,WNW,292,4.0,-999.0,90,-99.99,,,-99.99,0.000000,,2013-09-05 10:43:00,
2013-09-05 06:53:00,61.0,58.0,-100.00,WNW,292,4.0,-999.0,90,-99.99,,,-99.99,0.000000,,2013-09-05 10:53:00,
2013-09-05 08:00:00,61.0,52.0,-100.00,WNW,292,7.0,-999.0,73,-99.99,,,-99.99,18.559999,,2013-09-05 12:00:00,
2013-09-05 08:42:00,61.0,52.0,-100.00,WNW,292,7.0,-999.0,73,-99.99,,,-99.99,18.559999,,2013-09-05 12:42:00,
2013-09-05 08:52:00,61.0,52.0,-100.00,WNW,292,7.0,-999.0,73,-99.99,,,-99.99,18.559999,,2013-09-05 12:52:00,
2013-09-05 09:00:00,61.0,47.0,-100.00,WNW,292,8.0,-999.0,60,-99.99,,,-99.99,114.839996,,2013-09-05 13:00:00,
2013-09-05 09:42:00,61.0,47.0,-100.00,WNW,292,8.0,-999.0,60,-99.99,,,-99.99,114.839996,,2013-09-05 13:42:00,
2013-09-05 09:53:00,61.0,47.0,-100.00,WNW,292,8.0,-999.0,60,-99.99,,,-99.99,114.839996,,2013-09-05 13:53:00,
2013-09-05 10:00:00,62.0,48.0,-100.00,WNW,292,9.0,-999.0,58,-99.99,,,-99.99,261.000000,,2013-09-05 14:00:00,
2013-09-05 10:42:00,62.0,48.0,-100.00,WNW,292,9.0,-999.0,58,-99.99,,,-99.99,261.000000,,2013-09-05 14:42:00,
2013-09-05 10:52:00,62.0,48.0,-100.00,WNW,292,9.0,-999.0,58,-99.99,,,-99.99,261.000000,,2013-09-05 14:52:00,
2013-09-05 11:00:00,63.0,45.0,-100.00,WNW,292,8.0,-999.0,51,-99.99,,,-99.99,276.079987,,2013-09-05 15:00:00,
2013-09-05 11:44:00,63.0,45.0,-100.00,WNW,292,8.0,-999.0,51,-99.99,,,-99.99,276.079987,,2013-09-05 15:44:00,
2013-09-05 11:54:00,63.0,45.0,-100.00,WNW,292,8.0,-999.0,51,-99.99,,,-99.99,276.079987,,2013-09-05 15:54:00,
2013-09-05 17:00:00,74.0,44.0,-100.00,SSW,202,5.0,-999.0,34,-99.99,,,-99.99,482.559998,,2013-09-05 21:00:00,
2013-09-05 17:44:00,74.0,44.0,-100.00,SSW,202,5.0,-999.0,34,-99.99,,,-99.99,482.559998,,2013-09-05 21:44:00,
2013-09-05 17:54:00,74.0,44.0,-100.00,SSW,202,5.0,-999.0,34,-99.99,,,-99.99,482.559998,,2013-09-05 21:54:00,
2013-09-05 19:00:00,71.0,45.0,-100.00,SW,225,4.0,-999.0,40,-99.99,,,-99.99,207.639999,,2013-09-05 23:00:00,
2013-09-05 19:42:00,71.0,45.0,-100.00,SW,225,4.0,-999.0,40,-99.99,,,-99.99,207.639999,,2013-09-05 23:42:00,
2013-09-05 19:53:00,71.0,45.0,-100.00,SW,225,4.0,-999.0,40,-99.99,,,-99.99,207.639999,,2013-09-05 23:53:00,
2013-09-05 21:00:00,62.0,49.0,-100.00,WSW,247,0.0,-999.0,63,-99.99,,,-99.99,1.160000,,2013-09-06 01:00:00,
2013-09-05 21:42:00,62.0,49.0,-100.00,WSW,247,0.0,-999.0,63,-99.99,,,-99.99,1.160000,,2013-09-06 01:42:00,
2013-09-05 21:52:00,62.0,49.0,-100.00,WSW,247,0.0,-999.0,63,-99.99,,,-99.99,1.160000,,2013-09-06 01:52:00,
2013-09-05 22:00:00,59.0,50.0,-100.00,West,270,0.0,-999.0,74,-99.99,,,-99.99,0.000000,,2013-09-06 02:00:00,
2013-09-05 22:42:00,59.0,50.0,-100.00,West,270,0.0,-999.0,74,-99.99,,,-99.99,0.000000,,2013-09-06 02:42:00,
2013-09-05 22:52:00,59.0,50.0,-100.00,West,270,0.0,-999.0,74,-99.99,,,-99.99,0.000000,,2013-09-06 02:52:00,
2013-09-05 23:00:00,57.0,51.0,-100.00,West,270,0.0,-999.0,77,-99.99,,,-99.99,0.000000,,2013-09-06 03:00:00,
2013-09-05 23:44:00,57.0,51.0,-100.00,West,270,0.0,-999.0,77,-99.99,,,-99.99,0.000000,,2013-09-06 03:44:00,
2013-09-05 23:55:00,57.0,51.0,-100.00,West,270,0.0,-999.0,77,-99.99,,,-99.99,0.000000,,2013-09-06 03:55:00,